sensor_id;sensor_type;location;lat;lon;timestamp;P1;durP1;ratioP1;P2;durP2;ratioP2
16775;SDS011;8505;49.456;8.164;2023-08-20T00:01:21;16.67;;;10.00;;
16775;SDS011;8505;49.456;8.164;2023-08-20T00:03:51;13.95;;;9.48;;
16775;SDS011;8505;49.456;8.164;2023-08-20T00:06:20;14.45;;;9.43;;
16775;SDS011;8505;49.456;8.164;2023-08-20T00:08:48;16.90;;;9.20;;
16775;SDS011;8505;49.456;8.164;2023-08-20T00:11:17;14.57;;;9.00;;
16775;SDS011;8505;49.456;8.164;2023-08-20T00:13:45;12.10;;;9.45;;
16775;SDS011;8505;49.456;8.164;2023-08-20T00:16:14;14.07;;;9.32;;
16775;SDS011;8505;49.456;8.164;2023-08-20T00:18:42;15.40;;;9.80;;
16775;SDS011;8505;49.456;8.164;2023-08-20T00:21:11;15.38;;;10.05;;
16775;SDS011;8505;49.456;8.164;2023-08-20T00:23:39;15.68;;;9.70;;
16775;SDS011;8505;49.456;8.164;2023-08-20T00:26:07;15.90;;;9.95;;
16775;SDS011;8505;49.456;8.164;2023-08-20T00:28:36;13.07;;;9.80;;
16775;SDS011;8505;49.456;8.164;2023-08-20T00:31:05;15.68;;;10.02;;
16775;SDS011;8505;49.456;8.164;2023-08-20T00:33:34;14.05;;;10.07;;
16775;SDS011;8505;49.456;8.164;2023-08-20T00:36:02;15.07;;;10.07;;
16775;SDS011;8505;49.456;8.164;2023-08-20T00:38:30;14.75;;;10.63;;
16775;SDS011;8505;49.456;8.164;2023-08-20T00:40:58;17.17;;;12.55;;
16775;SDS011;8505;49.456;8.164;2023-08-20T00:43:26;14.60;;;11.10;;
16775;SDS011;8505;49.456;8.164;2023-08-20T00:45:53;17.70;;;10.75;;
16775;SDS011;8505;49.456;8.164;2023-08-20T00:48:21;14.52;;;10.38;;
16775;SDS011;8505;49.456;8.164;2023-08-20T00:50:51;15.60;;;10.35;;
16775;SDS011;8505;49.456;8.164;2023-08-20T00:53:19;16.73;;;10.82;;
16775;SDS011;8505;49.456;8.164;2023-08-20T00:55:46;14.65;;;10.65;;
16775;SDS011;8505;49.456;8.164;2023-08-20T00:58:14;15.35;;;10.20;;
16775;SDS011;8505;49.456;8.164;2023-08-20T01:00:42;13.90;;;9.90;;
16775;SDS011;8505;49.456;8.164;2023-08-20T01:03:11;13.95;;;9.80;;
16775;SDS011;8505;49.456;8.164;2023-08-20T01:05:39;15.63;;;9.73;;
16775;SDS011;8505;49.456;8.164;2023-08-20T01:08:23;12.60;;;10.00;;
16775;SDS011;8505;49.456;8.164;2023-08-20T01:10:57;15.98;;;9.93;;
16775;SDS011;8505;49.456;8.164;2023-08-20T01:13:30;14.52;;;9.82;;
16775;SDS011;8505;49.456;8.164;2023-08-20T01:15:58;13.70;;;10.13;;
16775;SDS011;8505;49.456;8.164;2023-08-20T01:18:26;15.82;;;10.27;;
16775;SDS011;8505;49.456;8.164;2023-08-20T01:20:55;16.52;;;10.65;;
16775;SDS011;8505;49.456;8.164;2023-08-20T01:23:32;13.13;;;10.23;;
16775;SDS011;8505;49.456;8.164;2023-08-20T01:26:20;16.38;;;10.82;;
16775;SDS011;8505;49.456;8.164;2023-08-20T01:28:59;16.67;;;11.13;;
16775;SDS011;8505;49.456;8.164;2023-08-20T01:31:26;18.48;;;10.73;;
16775;SDS011;8505;49.456;8.164;2023-08-20T01:33:55;14.85;;;10.80;;
16775;SDS011;8505;49.456;8.164;2023-08-20T01:36:24;14.77;;;10.73;;
16775;SDS011;8505;49.456;8.164;2023-08-20T01:38:52;16.67;;;11.10;;
16775;SDS011;8505;49.456;8.164;2023-08-20T01:41:20;15.98;;;10.88;;
16775;SDS011;8505;49.456;8.164;2023-08-20T01:43:47;16.33;;;10.77;;
16775;SDS011;8505;49.456;8.164;2023-08-20T01:46:16;14.77;;;11.52;;
16775;SDS011;8505;49.456;8.164;2023-08-20T01:48:45;19.80;;;11.02;;
16775;SDS011;8505;49.456;8.164;2023-08-20T01:51:13;15.32;;;11.32;;
16775;SDS011;8505;49.456;8.164;2023-08-20T01:53:41;16.67;;;11.32;;
16775;SDS011;8505;49.456;8.164;2023-08-20T01:56:10;15.60;;;11.20;;
16775;SDS011;8505;49.456;8.164;2023-08-20T01:58:39;17.95;;;11.77;;
16775;SDS011;8505;49.456;8.164;2023-08-20T02:01:07;16.63;;;11.70;;
16775;SDS011;8505;49.456;8.164;2023-08-20T02:03:36;14.63;;;11.32;;
16775;SDS011;8505;49.456;8.164;2023-08-20T02:06:05;17.65;;;11.82;;
16775;SDS011;8505;49.456;8.164;2023-08-20T02:08:32;16.50;;;11.70;;
16775;SDS011;8505;49.456;8.164;2023-08-20T02:11:00;19.55;;;12.23;;
16775;SDS011;8505;49.456;8.164;2023-08-20T02:13:29;17.95;;;12.30;;
16775;SDS011;8505;49.456;8.164;2023-08-20T02:15:58;16.23;;;12.23;;
16775;SDS011;8505;49.456;8.164;2023-08-20T02:18:26;17.65;;;12.25;;
16775;SDS011;8505;49.456;8.164;2023-08-20T02:20:55;18.42;;;11.80;;
16775;SDS011;8505;49.456;8.164;2023-08-20T02:23:23;16.70;;;11.73;;
16775;SDS011;8505;49.456;8.164;2023-08-20T02:25:51;17.17;;;11.52;;
16775;SDS011;8505;49.456;8.164;2023-08-20T02:28:19;17.55;;;12.13;;
16775;SDS011;8505;49.456;8.164;2023-08-20T02:30:46;17.55;;;11.70;;
16775;SDS011;8505;49.456;8.164;2023-08-20T02:33:14;14.32;;;11.25;;
16775;SDS011;8505;49.456;8.164;2023-08-20T02:35:43;16.30;;;11.77;;
16775;SDS011;8505;49.456;8.164;2023-08-20T02:38:12;17.83;;;11.73;;
16775;SDS011;8505;49.456;8.164;2023-08-20T02:40:40;16.23;;;11.93;;
16775;SDS011;8505;49.456;8.164;2023-08-20T02:43:08;14.93;;;11.25;;
16775;SDS011;8505;49.456;8.164;2023-08-20T02:45:39;16.00;;;11.50;;
16775;SDS011;8505;49.456;8.164;2023-08-20T02:48:08;17.48;;;12.07;;
16775;SDS011;8505;49.456;8.164;2023-08-20T02:50:37;16.27;;;11.70;;
16775;SDS011;8505;49.456;8.164;2023-08-20T02:53:05;13.70;;;11.40;;
16775;SDS011;8505;49.456;8.164;2023-08-20T02:55:34;17.40;;;11.63;;
16775;SDS011;8505;49.456;8.164;2023-08-20T02:58:02;15.63;;;11.73;;
16775;SDS011;8505;49.456;8.164;2023-08-20T03:00:30;16.48;;;11.65;;
16775;SDS011;8505;49.456;8.164;2023-08-20T03:02:58;14.80;;;11.13;;
16775;SDS011;8505;49.456;8.164;2023-08-20T03:05:27;18.93;;;11.63;;
16775;SDS011;8505;49.456;8.164;2023-08-20T03:07:54;16.60;;;11.93;;
16775;SDS011;8505;49.456;8.164;2023-08-20T03:10:23;18.45;;;12.57;;
16775;SDS011;8505;49.456;8.164;2023-08-20T03:12:52;15.95;;;12.13;;
16775;SDS011;8505;49.456;8.164;2023-08-20T03:15:19;15.93;;;12.25;;
16775;SDS011;8505;49.456;8.164;2023-08-20T03:17:47;16.67;;;12.03;;
16775;SDS011;8505;49.456;8.164;2023-08-20T03:20:15;15.55;;;11.43;;
16775;SDS011;8505;49.456;8.164;2023-08-20T03:22:43;17.98;;;11.98;;
16775;SDS011;8505;49.456;8.164;2023-08-20T03:25:10;17.88;;;12.02;;
16775;SDS011;8505;49.456;8.164;2023-08-20T03:27:38;16.90;;;12.07;;
16775;SDS011;8505;49.456;8.164;2023-08-20T03:30:08;17.35;;;12.18;;
16775;SDS011;8505;49.456;8.164;2023-08-20T03:32:36;18.58;;;12.00;;
16775;SDS011;8505;49.456;8.164;2023-08-20T03:35:04;16.88;;;12.38;;
16775;SDS011;8505;49.456;8.164;2023-08-20T03:37:32;17.47;;;12.00;;
16775;SDS011;8505;49.456;8.164;2023-08-20T03:40:00;14.90;;;12.50;;
16775;SDS011;8505;49.456;8.164;2023-08-20T03:42:28;15.02;;;11.88;;
16775;SDS011;8505;49.456;8.164;2023-08-20T03:44:56;16.35;;;11.98;;
16775;SDS011;8505;49.456;8.164;2023-08-20T03:47:25;16.33;;;11.73;;
16775;SDS011;8505;49.456;8.164;2023-08-20T03:49:53;16.05;;;12.20;;
16775;SDS011;8505;49.456;8.164;2023-08-20T03:52:21;15.65;;;11.70;;
16775;SDS011;8505;49.456;8.164;2023-08-20T03:54:49;16.20;;;12.47;;
16775;SDS011;8505;49.456;8.164;2023-08-20T03:57:17;17.00;;;11.40;;
16775;SDS011;8505;49.456;8.164;2023-08-20T03:59:45;17.75;;;11.88;;
16775;SDS011;8505;49.456;8.164;2023-08-20T04:02:13;17.25;;;11.90;;
16775;SDS011;8505;49.456;8.164;2023-08-20T04:04:42;15.70;;;11.52;;
16775;SDS011;8505;49.456;8.164;2023-08-20T04:07:10;16.43;;;11.57;;
16775;SDS011;8505;49.456;8.164;2023-08-20T04:09:38;17.67;;;11.48;;
16775;SDS011;8505;49.456;8.164;2023-08-20T04:12:06;15.63;;;11.10;;
16775;SDS011;8505;49.456;8.164;2023-08-20T04:14:34;17.90;;;11.45;;
16775;SDS011;8505;49.456;8.164;2023-08-20T04:17:01;18.77;;;11.95;;
16775;SDS011;8505;49.456;8.164;2023-08-20T04:19:29;15.63;;;11.68;;
16775;SDS011;8505;49.456;8.164;2023-08-20T04:21:58;15.37;;;11.63;;
16775;SDS011;8505;49.456;8.164;2023-08-20T04:24:26;15.82;;;11.70;;
16775;SDS011;8505;49.456;8.164;2023-08-20T04:26:53;14.65;;;11.27;;
16775;SDS011;8505;49.456;8.164;2023-08-20T04:29:21;15.18;;;11.20;;
16775;SDS011;8505;49.456;8.164;2023-08-20T04:31:48;18.48;;;11.43;;
16775;SDS011;8505;49.456;8.164;2023-08-20T04:34:16;13.63;;;11.02;;
16775;SDS011;8505;49.456;8.164;2023-08-20T04:36:44;13.90;;;10.82;;
16775;SDS011;8505;49.456;8.164;2023-08-20T04:39:13;15.07;;;11.05;;
16775;SDS011;8505;49.456;8.164;2023-08-20T04:41:40;16.08;;;10.93;;
16775;SDS011;8505;49.456;8.164;2023-08-20T04:44:08;16.03;;;10.97;;
16775;SDS011;8505;49.456;8.164;2023-08-20T04:46:36;15.52;;;10.50;;
16775;SDS011;8505;49.456;8.164;2023-08-20T04:49:03;13.93;;;10.15;;
16775;SDS011;8505;49.456;8.164;2023-08-20T04:51:32;13.75;;;10.32;;
16775;SDS011;8505;49.456;8.164;2023-08-20T04:53:59;13.13;;;10.13;;
16775;SDS011;8505;49.456;8.164;2023-08-20T04:56:28;14.10;;;10.27;;
16775;SDS011;8505;49.456;8.164;2023-08-20T04:58:56;13.85;;;10.50;;
16775;SDS011;8505;49.456;8.164;2023-08-20T05:01:24;15.30;;;10.10;;
16775;SDS011;8505;49.456;8.164;2023-08-20T05:03:51;12.15;;;10.13;;
16775;SDS011;8505;49.456;8.164;2023-08-20T05:06:19;13.93;;;9.88;;
16775;SDS011;8505;49.456;8.164;2023-08-20T05:08:47;13.20;;;10.20;;
16775;SDS011;8505;49.456;8.164;2023-08-20T05:11:14;13.05;;;9.95;;
16775;SDS011;8505;49.456;8.164;2023-08-20T05:13:43;12.57;;;10.10;;
16775;SDS011;8505;49.456;8.164;2023-08-20T05:16:12;15.68;;;10.63;;
16775;SDS011;8505;49.456;8.164;2023-08-20T05:18:40;14.23;;;10.00;;
16775;SDS011;8505;49.456;8.164;2023-08-20T05:21:08;16.17;;;10.07;;
16775;SDS011;8505;49.456;8.164;2023-08-20T05:23:37;14.90;;;9.88;;
16775;SDS011;8505;49.456;8.164;2023-08-20T05:26:05;13.68;;;10.00;;
16775;SDS011;8505;49.456;8.164;2023-08-20T05:28:33;14.47;;;9.97;;
16775;SDS011;8505;49.456;8.164;2023-08-20T05:31:02;12.55;;;9.65;;
16775;SDS011;8505;49.456;8.164;2023-08-20T05:33:30;13.95;;;9.90;;
16775;SDS011;8505;49.456;8.164;2023-08-20T05:35:59;12.77;;;9.40;;
16775;SDS011;8505;49.456;8.164;2023-08-20T05:38:27;12.85;;;8.90;;
16775;SDS011;8505;49.456;8.164;2023-08-20T05:40:54;13.25;;;9.85;;
16775;SDS011;8505;49.456;8.164;2023-08-20T05:43:22;14.50;;;9.18;;
16775;SDS011;8505;49.456;8.164;2023-08-20T05:45:50;11.23;;;8.65;;
16775;SDS011;8505;49.456;8.164;2023-08-20T05:48:19;12.65;;;8.55;;
16775;SDS011;8505;49.456;8.164;2023-08-20T05:50:47;11.65;;;8.50;;
16775;SDS011;8505;49.456;8.164;2023-08-20T05:53:14;11.30;;;8.02;;
16775;SDS011;8505;49.456;8.164;2023-08-20T05:55:42;11.13;;;8.00;;
16775;SDS011;8505;49.456;8.164;2023-08-20T05:58:10;11.65;;;8.35;;
16775;SDS011;8505;49.456;8.164;2023-08-20T06:00:38;13.15;;;8.23;;
16775;SDS011;8505;49.456;8.164;2023-08-20T06:03:06;12.52;;;7.80;;
16775;SDS011;8505;49.456;8.164;2023-08-20T06:05:35;12.13;;;8.02;;
16775;SDS011;8505;49.456;8.164;2023-08-20T06:08:03;11.15;;;8.13;;
16775;SDS011;8505;49.456;8.164;2023-08-20T06:10:32;11.18;;;8.30;;
16775;SDS011;8505;49.456;8.164;2023-08-20T06:13:00;11.32;;;8.25;;
16775;SDS011;8505;49.456;8.164;2023-08-20T06:15:28;11.82;;;8.52;;
16775;SDS011;8505;49.456;8.164;2023-08-20T06:17:55;9.63;;;8.02;;
16775;SDS011;8505;49.456;8.164;2023-08-20T06:20:23;11.63;;;8.00;;
16775;SDS011;8505;49.456;8.164;2023-08-20T06:22:52;11.88;;;8.20;;
16775;SDS011;8505;49.456;8.164;2023-08-20T06:25:20;12.27;;;7.93;;
16775;SDS011;8505;49.456;8.164;2023-08-20T06:27:48;12.10;;;8.02;;
16775;SDS011;8505;49.456;8.164;2023-08-20T06:30:15;11.10;;;7.93;;
16775;SDS011;8505;49.456;8.164;2023-08-20T06:32:43;11.55;;;8.32;;
16775;SDS011;8505;49.456;8.164;2023-08-20T06:35:11;11.80;;;7.60;;
16775;SDS011;8505;49.456;8.164;2023-08-20T06:37:39;13.52;;;7.60;;
16775;SDS011;8505;49.456;8.164;2023-08-20T06:40:09;11.77;;;7.82;;
16775;SDS011;8505;49.456;8.164;2023-08-20T06:42:37;10.73;;;7.47;;
16775;SDS011;8505;49.456;8.164;2023-08-20T06:45:06;11.48;;;7.20;;
16775;SDS011;8505;49.456;8.164;2023-08-20T06:47:35;11.25;;;6.72;;
16775;SDS011;8505;49.456;8.164;2023-08-20T06:50:04;10.25;;;7.10;;
16775;SDS011;8505;49.456;8.164;2023-08-20T06:52:33;12.52;;;6.80;;
16775;SDS011;8505;49.456;8.164;2023-08-20T06:55:01;9.03;;;6.60;;
16775;SDS011;8505;49.456;8.164;2023-08-20T06:57:30;11.68;;;6.50;;
16775;SDS011;8505;49.456;8.164;2023-08-20T06:59:57;10.37;;;6.80;;
16775;SDS011;8505;49.456;8.164;2023-08-20T07:02:25;10.23;;;6.20;;
16775;SDS011;8505;49.456;8.164;2023-08-20T07:04:53;7.75;;;5.93;;
16775;SDS011;8505;49.456;8.164;2023-08-20T07:07:21;10.20;;;6.43;;
16775;SDS011;8505;49.456;8.164;2023-08-20T07:09:48;9.15;;;5.90;;
16775;SDS011;8505;49.456;8.164;2023-08-20T07:12:16;8.98;;;5.70;;
16775;SDS011;8505;49.456;8.164;2023-08-20T07:14:45;8.37;;;5.37;;
16775;SDS011;8505;49.456;8.164;2023-08-20T07:17:13;7.25;;;5.30;;
16775;SDS011;8505;49.456;8.164;2023-08-20T07:19:41;8.50;;;4.93;;
16775;SDS011;8505;49.456;8.164;2023-08-20T07:22:09;7.35;;;5.10;;
16775;SDS011;8505;49.456;8.164;2023-08-20T07:24:36;7.00;;;5.05;;
16775;SDS011;8505;49.456;8.164;2023-08-20T07:27:04;5.80;;;4.40;;
16775;SDS011;8505;49.456;8.164;2023-08-20T07:29:39;6.43;;;4.47;;
16775;SDS011;8505;49.456;8.164;2023-08-20T07:32:09;7.25;;;4.47;;
16775;SDS011;8505;49.456;8.164;2023-08-20T07:34:38;7.20;;;4.60;;
16775;SDS011;8505;49.456;8.164;2023-08-20T07:37:05;6.43;;;4.45;;
16775;SDS011;8505;49.456;8.164;2023-08-20T07:39:33;7.38;;;4.57;;
16775;SDS011;8505;49.456;8.164;2023-08-20T07:42:01;7.18;;;4.60;;
16775;SDS011;8505;49.456;8.164;2023-08-20T07:44:29;9.50;;;4.67;;
16775;SDS011;8505;49.456;8.164;2023-08-20T07:46:57;7.57;;;4.60;;
16775;SDS011;8505;49.456;8.164;2023-08-20T07:49:26;5.82;;;4.40;;
16775;SDS011;8505;49.456;8.164;2023-08-20T07:51:53;6.90;;;4.40;;
16775;SDS011;8505;49.456;8.164;2023-08-20T07:54:22;6.60;;;4.47;;
16775;SDS011;8505;49.456;8.164;2023-08-20T07:56:49;8.20;;;4.38;;
16775;SDS011;8505;49.456;8.164;2023-08-20T07:59:17;7.13;;;4.40;;
16775;SDS011;8505;49.456;8.164;2023-08-20T08:01:45;5.88;;;4.43;;
16775;SDS011;8505;49.456;8.164;2023-08-20T08:04:13;6.17;;;4.50;;
16775;SDS011;8505;49.456;8.164;2023-08-20T08:06:42;8.90;;;4.75;;
16775;SDS011;8505;49.456;8.164;2023-08-20T08:09:19;6.43;;;4.60;;
16775;SDS011;8505;49.456;8.164;2023-08-20T08:11:48;7.95;;;4.70;;
16775;SDS011;8505;49.456;8.164;2023-08-20T08:14:16;7.30;;;4.68;;
16775;SDS011;8505;49.456;8.164;2023-08-20T08:16:45;8.73;;;4.63;;
16775;SDS011;8505;49.456;8.164;2023-08-20T08:19:13;7.97;;;4.90;;
16775;SDS011;8505;49.456;8.164;2023-08-20T08:21:42;7.57;;;4.90;;
16775;SDS011;8505;49.456;8.164;2023-08-20T08:24:11;7.85;;;4.80;;
16775;SDS011;8505;49.456;8.164;2023-08-20T08:26:39;6.45;;;4.53;;
16775;SDS011;8505;49.456;8.164;2023-08-20T08:29:07;7.10;;;4.80;;
16775;SDS011;8505;49.456;8.164;2023-08-20T08:31:35;6.35;;;4.57;;
16775;SDS011;8505;49.456;8.164;2023-08-20T08:34:03;8.38;;;4.93;;
16775;SDS011;8505;49.456;8.164;2023-08-20T08:36:31;6.85;;;4.65;;
16775;SDS011;8505;49.456;8.164;2023-08-20T08:39:00;6.75;;;4.50;;
16775;SDS011;8505;49.456;8.164;2023-08-20T08:41:28;8.73;;;4.88;;
16775;SDS011;8505;49.456;8.164;2023-08-20T08:43:58;6.55;;;4.80;;
16775;SDS011;8505;49.456;8.164;2023-08-20T08:46:25;7.60;;;4.75;;
16775;SDS011;8505;49.456;8.164;2023-08-20T08:48:54;7.18;;;4.20;;
16775;SDS011;8505;49.456;8.164;2023-08-20T08:51:22;7.20;;;4.38;;
16775;SDS011;8505;49.456;8.164;2023-08-20T08:53:51;5.95;;;4.50;;
16775;SDS011;8505;49.456;8.164;2023-08-20T08:56:20;8.47;;;4.47;;
16775;SDS011;8505;49.456;8.164;2023-08-20T08:58:49;6.97;;;4.30;;
16775;SDS011;8505;49.456;8.164;2023-08-20T09:01:16;5.78;;;4.32;;
16775;SDS011;8505;49.456;8.164;2023-08-20T09:03:44;9.48;;;4.35;;
16775;SDS011;8505;49.456;8.164;2023-08-20T09:06:12;7.32;;;4.28;;
16775;SDS011;8505;49.456;8.164;2023-08-20T09:08:40;8.73;;;4.30;;
16775;SDS011;8505;49.456;8.164;2023-08-20T09:11:07;6.90;;;4.28;;
16775;SDS011;8505;49.456;8.164;2023-08-20T09:13:37;6.85;;;4.57;;
16775;SDS011;8505;49.456;8.164;2023-08-20T09:16:06;5.53;;;4.43;;
16775;SDS011;8505;49.456;8.164;2023-08-20T09:18:37;6.22;;;4.40;;
16775;SDS011;8505;49.456;8.164;2023-08-20T09:21:06;7.93;;;4.40;;
16775;SDS011;8505;49.456;8.164;2023-08-20T09:23:35;8.45;;;4.50;;
16775;SDS011;8505;49.456;8.164;2023-08-20T09:26:04;6.70;;;4.10;;
16775;SDS011;8505;49.456;8.164;2023-08-20T09:28:41;8.55;;;4.60;;
16775;SDS011;8505;49.456;8.164;2023-08-20T09:31:10;6.10;;;4.05;;
16775;SDS011;8505;49.456;8.164;2023-08-20T09:33:44;5.45;;;3.85;;
16775;SDS011;8505;49.456;8.164;2023-08-20T09:36:16;6.90;;;4.63;;
16775;SDS011;8505;49.456;8.164;2023-08-20T09:38:43;6.73;;;4.20;;
16775;SDS011;8505;49.456;8.164;2023-08-20T09:41:13;6.10;;;4.00;;
16775;SDS011;8505;49.456;8.164;2023-08-20T09:43:42;7.38;;;4.10;;
16775;SDS011;8505;49.456;8.164;2023-08-20T09:46:13;6.78;;;4.13;;
16775;SDS011;8505;49.456;8.164;2023-08-20T09:48:43;6.80;;;4.20;;
16775;SDS011;8505;49.456;8.164;2023-08-20T09:51:15;6.80;;;4.18;;
16775;SDS011;8505;49.456;8.164;2023-08-20T09:53:49;8.18;;;4.20;;
16775;SDS011;8505;49.456;8.164;2023-08-20T09:56:24;6.22;;;4.20;;
16775;SDS011;8505;49.456;8.164;2023-08-20T09:58:56;8.32;;;4.40;;
16775;SDS011;8505;49.456;8.164;2023-08-20T10:01:25;6.32;;;4.28;;
16775;SDS011;8505;49.456;8.164;2023-08-20T10:03:53;7.07;;;4.70;;
16775;SDS011;8505;49.456;8.164;2023-08-20T10:06:21;7.22;;;4.25;;
16775;SDS011;8505;49.456;8.164;2023-08-20T10:08:51;6.63;;;4.40;;
16775;SDS011;8505;49.456;8.164;2023-08-20T10:11:20;8.67;;;4.53;;
16775;SDS011;8505;49.456;8.164;2023-08-20T10:13:48;7.38;;;4.80;;
16775;SDS011;8505;49.456;8.164;2023-08-20T10:16:18;6.20;;;4.38;;
16775;SDS011;8505;49.456;8.164;2023-08-20T10:18:50;8.77;;;4.53;;
16775;SDS011;8505;49.456;8.164;2023-08-20T10:21:18;7.03;;;4.28;;
16775;SDS011;8505;49.456;8.164;2023-08-20T10:23:49;5.88;;;4.43;;
16775;SDS011;8505;49.456;8.164;2023-08-20T10:26:17;7.70;;;4.43;;
16775;SDS011;8505;49.456;8.164;2023-08-20T10:28:48;6.47;;;4.40;;
16775;SDS011;8505;49.456;8.164;2023-08-20T10:31:16;5.53;;;4.07;;
16775;SDS011;8505;49.456;8.164;2023-08-20T10:33:49;6.28;;;4.35;;
16775;SDS011;8505;49.456;8.164;2023-08-20T10:36:18;5.75;;;4.40;;
16775;SDS011;8505;49.456;8.164;2023-08-20T10:38:49;7.57;;;4.07;;
16775;SDS011;8505;49.456;8.164;2023-08-20T10:41:24;6.63;;;4.33;;
16775;SDS011;8505;49.456;8.164;2023-08-20T10:43:52;7.60;;;4.27;;
16775;SDS011;8505;49.456;8.164;2023-08-20T10:46:21;6.70;;;4.35;;
16775;SDS011;8505;49.456;8.164;2023-08-20T10:48:51;6.07;;;4.15;;
16775;SDS011;8505;49.456;8.164;2023-08-20T10:51:19;8.30;;;4.50;;
16775;SDS011;8505;49.456;8.164;2023-08-20T10:54:05;7.13;;;4.13;;
16775;SDS011;8505;49.456;8.164;2023-08-20T10:56:38;6.97;;;4.20;;
16775;SDS011;8505;49.456;8.164;2023-08-20T10:59:08;6.25;;;4.07;;
16775;SDS011;8505;49.456;8.164;2023-08-20T11:01:38;8.25;;;4.30;;
16775;SDS011;8505;49.456;8.164;2023-08-20T11:04:06;7.30;;;4.23;;
16775;SDS011;8505;49.456;8.164;2023-08-20T11:06:34;7.85;;;4.03;;
16775;SDS011;8505;49.456;8.164;2023-08-20T11:09:02;5.68;;;3.90;;
16775;SDS011;8505;49.456;8.164;2023-08-20T11:11:31;6.07;;;3.95;;
16775;SDS011;8505;49.456;8.164;2023-08-20T11:14:04;6.93;;;3.87;;
16775;SDS011;8505;49.456;8.164;2023-08-20T11:16:32;5.43;;;4.00;;
16775;SDS011;8505;49.456;8.164;2023-08-20T11:19:03;5.90;;;4.13;;
16775;SDS011;8505;49.456;8.164;2023-08-20T11:21:34;5.00;;;3.70;;
16775;SDS011;8505;49.456;8.164;2023-08-20T11:24:03;5.72;;;4.22;;
16775;SDS011;8505;49.456;8.164;2023-08-20T11:26:32;5.95;;;3.90;;
16775;SDS011;8505;49.456;8.164;2023-08-20T11:29:05;5.78;;;3.78;;
16775;SDS011;8505;49.456;8.164;2023-08-20T11:31:33;4.97;;;3.22;;
16775;SDS011;8505;49.456;8.164;2023-08-20T11:34:03;5.97;;;3.70;;
16775;SDS011;8505;49.456;8.164;2023-08-20T11:36:31;7.95;;;4.25;;
16775;SDS011;8505;49.456;8.164;2023-08-20T11:38:59;6.60;;;3.88;;
16775;SDS011;8505;49.456;8.164;2023-08-20T11:41:27;7.03;;;4.03;;
16775;SDS011;8505;49.456;8.164;2023-08-20T11:43:55;6.03;;;3.83;;
16775;SDS011;8505;49.456;8.164;2023-08-20T11:46:23;8.50;;;4.20;;
16775;SDS011;8505;49.456;8.164;2023-08-20T11:49:01;5.70;;;3.90;;
16775;SDS011;8505;49.456;8.164;2023-08-20T11:51:35;6.85;;;4.18;;
16775;SDS011;8505;49.456;8.164;2023-08-20T11:54:04;7.35;;;3.90;;
16775;SDS011;8505;49.456;8.164;2023-08-20T11:56:34;8.07;;;3.92;;
16775;SDS011;8505;49.456;8.164;2023-08-20T11:59:02;5.10;;;3.67;;
16775;SDS011;8505;49.456;8.164;2023-08-20T12:01:30;5.25;;;3.60;;
16775;SDS011;8505;49.456;8.164;2023-08-20T12:04:02;6.20;;;4.00;;
16775;SDS011;8505;49.456;8.164;2023-08-20T12:06:31;5.88;;;3.70;;
16775;SDS011;8505;49.456;8.164;2023-08-20T12:08:59;5.32;;;3.50;;
16775;SDS011;8505;49.456;8.164;2023-08-20T12:11:27;5.95;;;3.53;;
16775;SDS011;8505;49.456;8.164;2023-08-20T12:13:55;5.22;;;3.70;;
16775;SDS011;8505;49.456;8.164;2023-08-20T12:16:24;4.70;;;3.50;;
16775;SDS011;8505;49.456;8.164;2023-08-20T12:18:52;5.78;;;3.13;;
16775;SDS011;8505;49.456;8.164;2023-08-20T12:21:21;6.65;;;3.00;;
16775;SDS011;8505;49.456;8.164;2023-08-20T12:23:49;5.82;;;3.13;;
16775;SDS011;8505;49.456;8.164;2023-08-20T12:26:17;5.13;;;3.10;;
16775;SDS011;8505;49.456;8.164;2023-08-20T12:28:44;4.03;;;2.40;;
16775;SDS011;8505;49.456;8.164;2023-08-20T12:31:12;5.20;;;2.60;;
16775;SDS011;8505;49.456;8.164;2023-08-20T12:33:40;6.05;;;2.50;;
16775;SDS011;8505;49.456;8.164;2023-08-20T12:36:08;4.95;;;3.00;;
16775;SDS011;8505;49.456;8.164;2023-08-20T12:38:37;4.85;;;2.88;;
16775;SDS011;8505;49.456;8.164;2023-08-20T12:41:05;6.85;;;3.17;;
16775;SDS011;8505;49.456;8.164;2023-08-20T12:43:33;4.50;;;2.92;;
16775;SDS011;8505;49.456;8.164;2023-08-20T12:46:01;5.60;;;2.80;;
16775;SDS011;8505;49.456;8.164;2023-08-20T12:48:29;5.38;;;3.03;;
16775;SDS011;8505;49.456;8.164;2023-08-20T12:50:57;7.13;;;3.33;;
16775;SDS011;8505;49.456;8.164;2023-08-20T12:53:25;7.25;;;3.13;;
16775;SDS011;8505;49.456;8.164;2023-08-20T12:55:54;4.97;;;3.10;;
16775;SDS011;8505;49.456;8.164;2023-08-20T12:58:22;4.47;;;2.70;;
16775;SDS011;8505;49.456;8.164;2023-08-20T13:00:50;7.10;;;2.90;;
16775;SDS011;8505;49.456;8.164;2023-08-20T13:03:18;6.60;;;3.00;;
16775;SDS011;8505;49.456;8.164;2023-08-20T13:05:47;4.95;;;3.00;;
16775;SDS011;8505;49.456;8.164;2023-08-20T13:08:15;6.07;;;2.83;;
16775;SDS011;8505;49.456;8.164;2023-08-20T13:10:44;5.85;;;2.80;;
16775;SDS011;8505;49.456;8.164;2023-08-20T13:13:19;6.80;;;2.53;;
16775;SDS011;8505;49.456;8.164;2023-08-20T13:15:48;5.75;;;2.65;;
16775;SDS011;8505;49.456;8.164;2023-08-20T13:18:19;6.85;;;2.72;;
16775;SDS011;8505;49.456;8.164;2023-08-20T13:20:51;6.78;;;2.90;;
16775;SDS011;8505;49.456;8.164;2023-08-20T13:23:19;4.80;;;2.80;;
16775;SDS011;8505;49.456;8.164;2023-08-20T13:25:47;4.85;;;2.53;;
16775;SDS011;8505;49.456;8.164;2023-08-20T13:28:15;4.30;;;2.60;;
16775;SDS011;8505;49.456;8.164;2023-08-20T13:30:45;6.53;;;2.77;;
16775;SDS011;8505;49.456;8.164;2023-08-20T13:33:13;5.05;;;2.83;;
16775;SDS011;8505;49.456;8.164;2023-08-20T13:35:41;4.93;;;2.72;;
16775;SDS011;8505;49.456;8.164;2023-08-20T13:38:09;5.22;;;2.90;;
16775;SDS011;8505;49.456;8.164;2023-08-20T13:40:36;4.15;;;2.55;;
16775;SDS011;8505;49.456;8.164;2023-08-20T13:43:04;4.05;;;2.50;;
16775;SDS011;8505;49.456;8.164;2023-08-20T13:45:32;4.80;;;2.60;;
16775;SDS011;8505;49.456;8.164;2023-08-20T13:48:01;7.20;;;2.75;;
16775;SDS011;8505;49.456;8.164;2023-08-20T13:50:30;4.83;;;3.10;;
16775;SDS011;8505;49.456;8.164;2023-08-20T13:52:58;4.97;;;2.88;;
16775;SDS011;8505;49.456;8.164;2023-08-20T13:55:27;7.20;;;3.13;;
16775;SDS011;8505;49.456;8.164;2023-08-20T13:57:57;5.40;;;2.55;;
16775;SDS011;8505;49.456;8.164;2023-08-20T14:00:25;5.70;;;2.80;;
16775;SDS011;8505;49.456;8.164;2023-08-20T14:02:52;5.30;;;2.70;;
16775;SDS011;8505;49.456;8.164;2023-08-20T14:05:22;5.25;;;2.97;;
16775;SDS011;8505;49.456;8.164;2023-08-20T14:07:50;4.97;;;2.85;;
16775;SDS011;8505;49.456;8.164;2023-08-20T14:10:17;4.60;;;3.10;;
16775;SDS011;8505;49.456;8.164;2023-08-20T14:12:45;6.70;;;2.90;;
16775;SDS011;8505;49.456;8.164;2023-08-20T14:15:13;4.20;;;2.97;;
16775;SDS011;8505;49.456;8.164;2023-08-20T14:17:40;4.10;;;2.80;;
16775;SDS011;8505;49.456;8.164;2023-08-20T14:20:08;5.90;;;2.95;;
16775;SDS011;8505;49.456;8.164;2023-08-20T14:22:39;7.72;;;3.08;;
16775;SDS011;8505;49.456;8.164;2023-08-20T14:25:07;5.70;;;2.90;;
16775;SDS011;8505;49.456;8.164;2023-08-20T14:27:36;5.07;;;3.00;;
16775;SDS011;8505;49.456;8.164;2023-08-20T14:30:04;7.07;;;3.03;;
16775;SDS011;8505;49.456;8.164;2023-08-20T14:32:34;5.43;;;3.00;;
16775;SDS011;8505;49.456;8.164;2023-08-20T14:35:06;5.18;;;2.80;;
16775;SDS011;8505;49.456;8.164;2023-08-20T14:37:34;5.03;;;2.97;;
16775;SDS011;8505;49.456;8.164;2023-08-20T14:40:04;6.88;;;2.83;;
16775;SDS011;8505;49.456;8.164;2023-08-20T14:42:33;5.82;;;3.10;;
16775;SDS011;8505;49.456;8.164;2023-08-20T14:45:01;6.88;;;3.15;;
16775;SDS011;8505;49.456;8.164;2023-08-20T14:47:30;6.60;;;3.30;;
16775;SDS011;8505;49.456;8.164;2023-08-20T14:49:58;6.13;;;3.03;;
16775;SDS011;8505;49.456;8.164;2023-08-20T14:52:26;5.73;;;3.33;;
16775;SDS011;8505;49.456;8.164;2023-08-20T14:54:54;5.87;;;2.80;;
16775;SDS011;8505;49.456;8.164;2023-08-20T14:57:23;6.57;;;3.55;;
16775;SDS011;8505;49.456;8.164;2023-08-20T15:00:06;6.55;;;3.20;;